createdAt,value
2023-04-09T00:00:37.900Z,25.49
2023-04-09T00:01:37.976Z,25.49
2023-04-09T00:02:37.990Z,25.52
2023-04-09T00:03:38.025Z,25.49
2023-04-09T00:04:38.032Z,25.48
2023-04-09T00:05:38.123Z,25.46
2023-04-09T00:06:38.866Z,25.51
2023-04-09T00:07:38.154Z,25.48
2023-04-09T00:08:38.198Z,25.48
2023-04-09T00:09:38.499Z,25.49
2023-04-09T00:10:38.288Z,25.49
2023-04-09T00:11:38.292Z,25.49
2023-04-09T00:12:38.300Z,25.48
2023-04-09T00:13:39.952Z,25.48
2023-04-09T00:14:38.429Z,25.48
2023-04-09T00:15:38.520Z,25.45
2023-04-09T00:16:38.617Z,25.49
2023-04-09T00:17:38.630Z,25.46
2023-04-09T00:18:38.623Z,25.49
2023-04-09T00:19:38.672Z,25.46
2023-04-09T00:20:38.844Z,25.48
2023-04-09T00:21:38.743Z,25.46
2023-04-09T00:22:38.771Z,25.48
2023-04-09T00:23:38.845Z,25.44
2023-04-09T00:24:38.875Z,25.46
2023-04-09T00:25:38.936Z,25.46
2023-04-09T00:26:38.913Z,25.48
2023-04-09T00:27:39.000Z,25.45
2023-04-09T00:28:39.076Z,25.46
2023-04-09T00:29:39.112Z,25.46
2023-04-09T00:30:39.170Z,25.44
2023-04-09T00:31:39.196Z,25.41
2023-04-09T00:32:39.247Z,25.45
2023-04-09T00:33:39.249Z,25.44
2023-04-09T00:34:39.341Z,25.42
2023-04-09T00:35:39.326Z,25.41
2023-04-09T00:36:39.322Z,25.45
2023-04-09T00:37:39.363Z,25.44
2023-04-09T00:38:39.379Z,25.44
2023-04-09T00:39:39.388Z,25.46
2023-04-09T00:40:39.437Z,25.42
2023-04-09T00:41:39.425Z,25.42
2023-04-09T00:42:39.460Z,25.45
2023-04-09T00:43:39.526Z,25.41
2023-04-09T00:44:39.508Z,25.45
2023-04-09T00:45:39.549Z,25.42
2023-04-09T00:46:39.614Z,25.44
2023-04-09T00:47:39.687Z,25.42
2023-04-09T00:48:39.649Z,25.41
2023-04-09T00:49:39.689Z,25.41
2023-04-09T00:50:39.714Z,25.44
2023-04-09T00:51:39.867Z,25.41
2023-04-09T00:52:39.795Z,25.41
2023-04-09T00:53:39.785Z,25.41
2023-04-09T00:54:39.808Z,25.41
2023-04-09T00:55:39.798Z,25.44
2023-04-09T00:56:39.904Z,25.41
2023-04-09T00:57:39.844Z,25.41
2023-04-09T00:58:39.927Z,25.41
2023-04-09T00:59:39.894Z,25.41
2023-04-09T01:00:39.938Z,25.40
2023-04-09T01:01:40.056Z,25.40
2023-04-09T01:02:40.259Z,25.40
2023-04-09T01:03:40.092Z,25.40
2023-04-09T01:04:40.064Z,25.41
2023-04-09T01:05:40.075Z,25.41
2023-04-09T01:06:40.068Z,25.41
2023-04-09T01:07:40.082Z,25.37
2023-04-09T01:08:40.149Z,25.38
2023-04-09T01:09:40.148Z,25.38
2023-04-09T01:10:40.136Z,25.41
2023-04-09T01:11:40.164Z,25.40
2023-04-09T01:12:40.147Z,25.41
2023-04-09T01:13:40.236Z,25.37
2023-04-09T01:14:40.394Z,25.37
2023-04-09T01:15:40.160Z,25.37
2023-04-09T01:16:40.247Z,25.40
2023-04-09T01:17:40.243Z,25.40
2023-04-09T01:18:40.355Z,25.40
2023-04-09T01:19:40.266Z,25.38
2023-04-09T01:20:40.231Z,25.37
2023-04-09T01:21:40.235Z,25.40
2023-04-09T01:22:40.280Z,25.37
2023-04-09T01:23:40.223Z,25.38
2023-04-09T01:24:40.223Z,25.37
2023-04-09T01:25:40.261Z,25.37
2023-04-09T01:26:40.234Z,25.34
2023-04-09T01:27:40.243Z,25.35
2023-04-09T01:28:40.286Z,25.37
2023-04-09T01:29:40.225Z,25.37
2023-04-09T01:30:40.269Z,25.34
2023-04-09T01:31:40.242Z,25.34
2023-04-09T01:32:40.278Z,25.35
2023-04-09T01:33:40.255Z,25.35
2023-04-09T01:34:40.261Z,25.34
2023-04-09T01:35:40.306Z,25.34
2023-04-09T01:36:40.355Z,25.32
2023-04-09T01:37:40.331Z,25.32
2023-04-09T01:38:40.350Z,25.35
2023-04-09T01:39:40.356Z,25.34
2023-04-09T01:40:40.346Z,25.37
2023-04-09T01:41:40.358Z,25.34
2023-04-09T01:42:40.370Z,25.34
2023-04-09T01:43:40.897Z,25.34
2023-04-09T01:44:40.439Z,25.37
2023-04-09T01:45:40.435Z,25.32
2023-04-09T01:46:40.451Z,25.34
2023-04-09T01:47:40.504Z,25.32
2023-04-09T01:48:40.503Z,25.34
2023-04-09T01:49:40.469Z,25.34
2023-04-09T01:50:40.474Z,25.34
2023-04-09T01:51:40.490Z,25.32
2023-04-09T01:52:40.494Z,25.34
2023-04-09T01:53:40.548Z,25.32
2023-04-09T01:54:40.434Z,25.32
2023-04-09T01:55:40.455Z,25.32
2023-04-09T01:56:40.468Z,25.34
2023-04-09T01:57:40.484Z,25.32
2023-04-09T01:58:40.453Z,25.32
2023-04-09T01:59:40.501Z,25.31
2023-04-09T02:00:40.448Z,25.31
2023-04-09T02:01:40.565Z,25.32
2023-04-09T02:02:40.504Z,25.30
2023-04-09T02:03:40.516Z,25.30
2023-04-09T02:04:40.467Z,25.31
2023-04-09T02:05:40.468Z,25.28
2023-04-09T02:06:40.590Z,25.31
2023-04-09T02:07:40.529Z,25.28
2023-04-09T02:08:40.495Z,25.31
2023-04-09T02:09:40.507Z,25.31
2023-04-09T02:10:40.461Z,25.32
2023-04-09T02:11:40.671Z,25.32
2023-04-09T02:12:40.534Z,25.30
2023-04-09T02:13:40.536Z,25.31
2023-04-09T02:14:40.492Z,25.30
2023-04-09T02:15:40.644Z,25.28
2023-04-09T02:16:40.545Z,25.28
2023-04-09T02:17:40.553Z,25.30
2023-04-09T02:18:40.482Z,25.30
2023-04-09T02:19:40.527Z,25.25
2023-04-09T02:20:40.547Z,25.28
2023-04-09T02:21:40.543Z,25.28
2023-04-09T02:22:40.540Z,25.30
2023-04-09T02:23:40.547Z,25.30
2023-04-09T02:24:40.596Z,25.30
2023-04-09T02:25:40.510Z,25.27
2023-04-09T02:26:40.527Z,25.28
2023-04-09T02:27:40.525Z,25.28
2023-04-09T02:28:40.530Z,25.27
2023-04-09T02:29:40.541Z,25.30
2023-04-09T02:30:40.549Z,25.28
2023-04-09T02:31:40.505Z,25.27
2023-04-09T02:32:40.584Z,25.27
2023-04-09T02:33:40.519Z,25.28
2023-04-09T02:34:40.525Z,25.27
2023-04-09T02:35:40.558Z,25.25
2023-04-09T02:36:40.474Z,25.27
2023-04-09T02:37:40.550Z,25.28
2023-04-09T02:38:40.518Z,25.25
2023-04-09T02:39:40.497Z,25.25
2023-04-09T02:40:40.501Z,25.25
2023-04-09T02:41:40.521Z,25.25
2023-04-09T02:42:40.471Z,25.25
2023-04-09T02:43:40.958Z,25.24
2023-04-09T02:44:40.496Z,25.24
2023-04-09T02:45:40.491Z,25.25
2023-04-09T02:46:40.586Z,25.24
2023-04-09T02:47:40.510Z,25.24
2023-04-09T02:48:40.489Z,25.27
2023-04-09T02:49:40.466Z,25.25
2023-04-09T02:50:40.478Z,25.24
2023-04-09T02:51:40.485Z,25.25
2023-04-09T02:52:40.439Z,25.25
2023-04-09T02:53:40.448Z,25.24
2023-04-09T02:54:40.465Z,25.27
2023-04-09T02:55:40.462Z,25.24
2023-04-09T02:56:40.461Z,25.25
2023-04-09T02:57:40.475Z,25.24
2023-04-09T02:58:40.641Z,25.24
2023-04-09T02:59:40.442Z,25.22
2023-04-09T03:00:40.442Z,25.24
2023-04-09T03:01:40.519Z,25.22
2023-04-09T03:02:40.541Z,25.21
2023-04-09T03:03:40.504Z,25.22
2023-04-09T03:04:40.421Z,25.21
2023-04-09T03:05:40.478Z,25.21
2023-04-09T03:06:40.432Z,25.21
2023-04-09T03:07:40.442Z,25.20
2023-04-09T03:08:40.448Z,25.22
2023-04-09T03:09:40.449Z,25.21
2023-04-09T03:10:40.464Z,25.21
2023-04-09T03:11:40.442Z,25.24
2023-04-09T03:12:40.537Z,25.21
2023-04-09T03:13:40.589Z,25.21
2023-04-09T03:14:40.445Z,25.20
2023-04-09T03:15:40.474Z,25.20
2023-04-09T03:16:40.444Z,25.22
2023-04-09T03:17:40.499Z,25.21
2023-04-09T03:18:40.472Z,25.20
2023-04-09T03:19:40.467Z,25.22
2023-04-09T03:20:40.483Z,25.22
2023-04-09T03:21:40.585Z,25.21
2023-04-09T03:22:40.956Z,25.21
2023-04-09T03:23:40.610Z,25.20
2023-04-09T03:24:40.616Z,25.22
2023-04-09T03:25:40.611Z,25.20
2023-04-09T03:26:40.583Z,25.18
2023-04-09T03:27:40.683Z,25.18
2023-04-09T03:28:40.582Z,25.20
2023-04-09T03:29:40.589Z,25.21
2023-04-09T03:30:40.597Z,25.20
2023-04-09T03:31:40.630Z,25.21
2023-04-09T03:32:40.661Z,25.18
2023-04-09T03:33:40.620Z,25.18
2023-04-09T03:34:40.576Z,25.20
2023-04-09T03:35:40.611Z,25.22
2023-04-09T03:36:40.588Z,25.18
2023-04-09T03:37:40.617Z,25.15
2023-04-09T03:38:40.611Z,25.20
2023-04-09T03:39:40.611Z,25.20
2023-04-09T03:40:40.606Z,25.18
2023-04-09T03:41:40.625Z,25.18
2023-04-09T03:42:40.620Z,25.17
2023-04-09T03:43:40.643Z,25.17
2023-04-09T03:44:40.639Z,25.18
2023-04-09T03:45:40.605Z,25.15
2023-04-09T03:46:40.701Z,25.15
2023-04-09T03:47:40.765Z,25.18
2023-04-09T03:48:40.625Z,25.18
2023-04-09T03:49:40.642Z,25.17
2023-04-09T03:50:40.629Z,25.15
2023-04-09T03:51:40.632Z,25.15
2023-04-09T03:52:40.641Z,25.20
2023-04-09T03:53:40.667Z,25.14
2023-04-09T03:54:40.669Z,25.15
2023-04-09T03:55:40.631Z,25.17
2023-04-09T03:56:40.623Z,25.18
2023-04-09T03:57:40.625Z,25.17
2023-04-09T03:58:40.627Z,25.18
2023-04-09T03:59:40.644Z,25.17
2023-04-09T04:00:40.717Z,25.15
2023-04-09T04:01:40.759Z,25.18
2023-04-09T04:02:40.877Z,25.15
2023-04-09T04:03:40.887Z,25.17
2023-04-09T04:04:40.728Z,25.17
2023-04-09T04:05:40.683Z,25.15
2023-04-09T04:06:40.698Z,25.17
2023-04-09T04:07:40.696Z,25.15
2023-04-09T04:08:40.697Z,25.14
2023-04-09T04:09:40.721Z,25.15
2023-04-09T04:10:40.723Z,25.15
2023-04-09T04:11:40.739Z,25.13
2023-04-09T04:12:40.667Z,25.14
2023-04-09T04:13:40.754Z,25.14
2023-04-09T04:14:40.685Z,25.14
2023-04-09T04:15:40.688Z,25.13
2023-04-09T04:16:40.791Z,25.14
2023-04-09T04:17:40.762Z,25.14
2023-04-09T04:18:40.707Z,25.13
2023-04-09T04:19:40.717Z,25.13
2023-04-09T04:20:40.730Z,25.14
2023-04-09T04:21:40.752Z,25.13
2023-04-09T04:22:40.746Z,25.13
2023-04-09T04:23:40.744Z,25.13
2023-04-09T04:24:40.754Z,25.13
2023-04-09T04:25:40.772Z,25.14
2023-04-09T04:26:40.766Z,25.13
2023-04-09T04:27:40.774Z,25.13
2023-04-09T04:28:40.812Z,25.11
2023-04-09T04:29:40.786Z,25.13
2023-04-09T04:30:40.786Z,25.14
2023-04-09T04:31:40.829Z,25.13
2023-04-09T04:32:40.780Z,25.14
2023-04-09T04:33:40.849Z,25.11
2023-04-09T04:34:40.774Z,25.11
2023-04-09T04:35:40.846Z,25.13
2023-04-09T04:36:40.788Z,25.14
2023-04-09T04:37:40.794Z,25.13
2023-04-09T04:38:40.800Z,25.14
2023-04-09T04:39:40.826Z,25.13
2023-04-09T04:40:40.830Z,25.11
2023-04-09T04:41:40.829Z,25.11
2023-04-09T04:42:40.844Z,25.10
2023-04-09T04:43:40.851Z,25.11
2023-04-09T04:44:40.850Z,25.10
2023-04-09T04:45:40.841Z,25.10
2023-04-09T04:46:40.864Z,25.10
2023-04-09T04:47:40.881Z,25.10
2023-04-09T04:48:40.873Z,25.11
2023-04-09T04:49:40.881Z,25.11
2023-04-09T04:50:40.887Z,25.11
2023-04-09T04:51:41.450Z,25.09
2023-04-09T04:52:40.910Z,25.11
2023-04-09T04:53:40.946Z,25.10
2023-04-09T04:54:40.877Z,25.10
2023-04-09T04:55:40.931Z,25.11
2023-04-09T04:56:40.870Z,25.10
2023-04-09T04:57:40.932Z,25.09
2023-04-09T04:58:40.939Z,25.11
2023-04-09T04:59:40.945Z,25.07
2023-04-09T05:00:40.949Z,25.07
2023-04-09T05:01:41.057Z,25.11
2023-04-09T05:02:41.053Z,25.10
2023-04-09T05:03:41.118Z,25.09
2023-04-09T05:04:40.993Z,25.09
2023-04-09T05:05:40.990Z,25.09
2023-04-09T05:06:40.989Z,25.09
2023-04-09T05:07:41.006Z,25.07
2023-04-09T05:08:41.014Z,25.09
2023-04-09T05:09:40.964Z,25.09
2023-04-09T05:10:41.021Z,25.10
2023-04-09T05:11:41.035Z,25.09
2023-04-09T05:12:41.026Z,25.07
2023-04-09T05:13:41.038Z,25.07
2023-04-09T05:14:41.092Z,25.09
2023-04-09T05:15:41.065Z,25.07
2023-04-09T05:16:41.095Z,25.09
2023-04-09T05:17:41.094Z,25.06
2023-04-09T05:18:41.125Z,25.07
2023-04-09T05:19:41.078Z,25.09
2023-04-09T05:20:41.091Z,25.09
2023-04-09T05:21:41.103Z,25.06
2023-04-09T05:22:41.097Z,25.07
2023-04-09T05:23:41.156Z,25.07
2023-04-09T05:24:41.158Z,25.07
2023-04-09T05:25:41.161Z,25.06
2023-04-09T05:26:41.169Z,25.06
2023-04-09T05:27:41.186Z,25.07
2023-04-09T05:28:41.196Z,25.07
2023-04-09T05:29:41.194Z,25.10
2023-04-09T05:30:41.278Z,25.07
2023-04-09T05:31:41.229Z,25.06
2023-04-09T05:32:41.309Z,25.06
2023-04-09T05:33:41.280Z,25.06
2023-04-09T05:34:41.287Z,25.07
2023-04-09T05:35:41.315Z,25.06
2023-04-09T05:36:41.349Z,25.07
2023-04-09T05:37:41.325Z,25.07
2023-04-09T05:38:41.380Z,25.07
2023-04-09T05:39:41.358Z,25.09
2023-04-09T05:40:41.368Z,25.07
2023-04-09T05:41:41.482Z,25.07
2023-04-09T05:42:41.458Z,25.09
2023-04-09T05:43:41.446Z,25.06
2023-04-09T05:44:41.453Z,25.07
2023-04-09T05:45:41.482Z,25.09
2023-04-09T05:46:41.578Z,25.09
2023-04-09T05:47:41.484Z,25.09
2023-04-09T05:48:41.491Z,25.07
2023-04-09T05:49:41.500Z,25.07
2023-04-09T05:50:54.035Z,25.09
2023-04-09T05:51:42.531Z,25.07
2023-04-09T05:52:41.471Z,25.09
2023-04-09T05:53:41.468Z,25.09
2023-04-09T05:54:41.473Z,25.09
2023-04-09T05:55:41.487Z,25.07
2023-04-09T05:56:41.477Z,25.07
2023-04-09T05:57:41.444Z,25.09
2023-04-09T05:58:41.448Z,25.09
2023-04-09T05:59:41.468Z,25.06
2023-04-09T06:00:41.440Z,25.06
2023-04-09T06:01:41.450Z,25.07
2023-04-09T06:02:41.486Z,25.09
2023-04-09T06:03:41.513Z,25.09
2023-04-09T06:04:41.448Z,25.10
2023-04-09T06:05:41.398Z,25.07
2023-04-09T06:06:41.414Z,25.07
2023-04-09T06:07:41.419Z,25.09
2023-04-09T06:08:41.394Z,25.09
2023-04-09T06:09:41.397Z,25.10
2023-04-09T06:10:41.577Z,25.07
2023-04-09T06:11:41.381Z,25.09
2023-04-09T06:12:41.337Z,25.07
2023-04-09T06:13:41.352Z,25.11
2023-04-09T06:14:41.424Z,25.09
2023-04-09T06:15:41.319Z,25.09
2023-04-09T06:16:41.314Z,25.09
2023-04-09T06:17:41.393Z,25.09
2023-04-09T06:18:41.309Z,25.10
2023-04-09T06:19:41.299Z,25.07
2023-04-09T06:20:41.302Z,25.09
2023-04-09T06:21:41.292Z,25.09
2023-04-09T06:22:41.309Z,25.09
2023-04-09T06:23:41.269Z,25.09
2023-04-09T06:24:41.260Z,25.09
2023-04-09T06:25:41.265Z,25.09
2023-04-09T06:26:41.226Z,25.07
2023-04-09T06:27:41.235Z,25.09
2023-04-09T06:28:41.257Z,25.07
2023-04-09T06:29:41.247Z,25.09
2023-04-09T06:30:41.253Z,25.09
2023-04-09T06:31:42.027Z,25.07
2023-04-09T06:32:53.217Z,25.09
2023-04-09T06:33:43.069Z,25.09
2023-04-09T06:34:41.289Z,25.07
2023-04-09T06:35:41.347Z,25.10
2023-04-09T06:36:41.240Z,25.09
2023-04-09T06:37:41.243Z,25.07
2023-04-09T06:38:41.258Z,25.09
2023-04-09T06:39:47.593Z,25.09
2023-04-09T06:40:42.249Z,25.06
2023-04-09T06:41:41.229Z,25.07
2023-04-09T06:42:41.240Z,25.07
2023-04-09T06:43:41.188Z,25.09
2023-04-09T06:44:41.260Z,25.09
2023-04-09T06:45:41.291Z,25.09
2023-04-09T06:46:41.194Z,25.09
2023-04-09T06:47:41.205Z,25.07
2023-04-09T06:48:41.180Z,25.07
2023-04-09T06:49:41.209Z,25.06
2023-04-09T06:50:41.115Z,25.09
2023-04-09T06:51:41.124Z,25.06
2023-04-09T06:52:41.145Z,25.09
2023-04-09T06:53:41.161Z,25.10
2023-04-09T06:54:41.165Z,25.09
2023-04-09T06:55:41.129Z,25.06
2023-04-09T06:56:41.135Z,25.09
2023-04-09T06:57:41.137Z,25.06
2023-04-09T06:58:41.077Z,25.09
2023-04-09T06:59:41.099Z,25.09
2023-04-09T07:00:41.102Z,25.09
2023-04-09T07:01:41.146Z,25.07
2023-04-09T07:02:41.375Z,25.09
2023-04-09T07:03:41.270Z,25.09
2023-04-09T07:04:41.098Z,25.10
2023-04-09T07:05:41.094Z,25.10
2023-04-09T07:06:41.038Z,25.09
2023-04-09T07:07:41.056Z,25.11
2023-04-09T07:08:41.144Z,25.10
2023-04-09T07:09:41.010Z,25.10
2023-04-09T07:10:41.025Z,25.11
2023-04-09T07:11:41.042Z,25.11
2023-04-09T07:12:41.029Z,25.10
2023-04-09T07:13:40.992Z,25.10
2023-04-09T07:14:40.979Z,25.11
2023-04-09T07:15:42.502Z,25.13
2023-04-09T07:16:41.040Z,25.13
2023-04-09T07:17:41.025Z,25.13
2023-04-09T07:18:41.023Z,25.13
2023-04-09T07:19:41.009Z,25.14
2023-04-09T07:20:40.986Z,25.13
2023-04-09T07:21:41.027Z,25.11
2023-04-09T07:22:41.002Z,25.13
2023-04-09T07:23:41.046Z,25.14
2023-04-09T07:24:41.059Z,25.11
2023-04-09T07:25:41.014Z,25.13
2023-04-09T07:26:41.029Z,25.14
2023-04-09T07:27:41.086Z,25.13
2023-04-09T07:28:41.092Z,25.11
2023-04-09T07:29:41.089Z,25.14
2023-04-09T07:30:41.095Z,25.14
2023-04-09T07:31:41.115Z,25.14
2023-04-09T07:32:41.143Z,25.14
2023-04-09T07:33:41.110Z,25.14
2023-04-09T07:34:41.286Z,25.13
2023-04-09T07:35:41.142Z,25.11
2023-04-09T07:36:41.133Z,25.13
2023-04-09T07:37:41.145Z,25.14
2023-04-09T07:38:41.212Z,25.11
2023-04-09T07:39:41.227Z,25.15
2023-04-09T07:40:41.264Z,25.15
2023-04-09T07:41:41.287Z,25.14
2023-04-09T07:42:41.234Z,25.13
2023-04-09T07:43:41.243Z,25.14
2023-04-09T07:44:41.245Z,25.17
2023-04-09T07:45:41.207Z,25.14
2023-04-09T07:46:41.276Z,25.13
2023-04-09T07:47:41.333Z,25.15
2023-04-09T07:48:41.303Z,25.15
2023-04-09T07:49:41.273Z,25.14
2023-04-09T07:50:41.294Z,25.15
2023-04-09T07:51:41.296Z,25.14
2023-04-09T07:52:41.275Z,25.15
2023-04-09T07:53:41.275Z,25.15
2023-04-09T07:54:41.378Z,25.15
2023-04-09T07:55:41.322Z,25.15
2023-04-09T07:56:41.310Z,25.15
2023-04-09T07:57:41.342Z,25.15
2023-04-09T07:58:41.303Z,25.17
2023-04-09T07:59:41.361Z,25.18
2023-04-09T08:00:41.353Z,25.18
2023-04-09T08:01:41.429Z,25.15
2023-04-09T08:02:41.495Z,25.17
2023-04-09T08:03:41.444Z,25.17
2023-04-09T08:04:41.521Z,25.18
2023-04-09T08:05:41.494Z,25.18
2023-04-09T08:06:41.400Z,25.18
2023-04-09T08:07:41.411Z,25.18
2023-04-09T08:08:41.354Z,25.20
2023-04-09T08:09:41.367Z,25.18
2023-04-09T08:10:41.375Z,25.21
2023-04-09T08:11:41.381Z,25.20
2023-04-09T08:12:41.343Z,25.22
2023-04-09T08:13:41.348Z,25.22
2023-04-09T08:14:41.406Z,25.22
2023-04-09T08:15:41.396Z,25.24
2023-04-09T08:16:41.416Z,25.22
2023-04-09T08:17:41.475Z,25.22
2023-04-09T08:18:41.462Z,25.25
2023-04-09T08:19:42.027Z,25.25
2023-04-09T08:20:41.546Z,25.25
2023-04-09T08:21:41.511Z,25.25
2023-04-09T08:22:41.521Z,25.27
2023-04-09T08:23:41.521Z,25.30
2023-04-09T08:24:41.465Z,25.30
2023-04-09T08:25:41.471Z,25.31
2023-04-09T08:26:41.493Z,25.31
2023-04-09T08:27:41.482Z,25.34
2023-04-09T08:28:41.499Z,25.30
2023-04-09T08:29:41.459Z,25.34
2023-04-09T08:30:41.566Z,25.37
2023-04-09T08:31:41.540Z,25.34
2023-04-09T08:32:41.515Z,25.38
2023-04-09T08:33:41.548Z,25.37
2023-04-09T08:34:41.592Z,25.38
2023-04-09T08:35:41.609Z,25.38
2023-04-09T08:36:41.690Z,25.40
2023-04-09T08:37:41.613Z,25.38
2023-04-09T08:38:41.654Z,25.40
2023-04-09T08:39:41.654Z,25.41
2023-04-09T08:40:41.675Z,25.40
2023-04-09T08:41:41.684Z,25.38
2023-04-09T08:42:41.706Z,25.40
2023-04-09T08:43:56.378Z,25.41
2023-04-09T08:44:42.726Z,25.38
2023-04-09T08:45:41.768Z,25.38
2023-04-09T08:46:41.676Z,25.37
2023-04-09T08:47:41.760Z,25.37
2023-04-09T08:48:41.827Z,25.38
2023-04-09T08:49:41.819Z,25.40
2023-04-09T08:50:41.678Z,25.38
2023-04-09T08:51:41.712Z,25.38
2023-04-09T08:52:41.673Z,25.41
2023-04-09T08:53:41.652Z,25.40
2023-04-09T08:54:41.709Z,25.41
2023-04-09T08:55:41.642Z,25.40
2023-04-09T08:56:41.635Z,25.40
2023-04-09T08:57:41.688Z,25.42
2023-04-09T08:58:41.714Z,25.42
2023-04-09T08:59:41.766Z,25.41
2023-04-09T09:00:41.801Z,25.41
2023-04-09T09:01:41.904Z,25.41
2023-04-09T09:02:42.025Z,25.41
2023-04-09T09:03:42.100Z,25.40
2023-04-09T09:04:42.058Z,25.42
2023-04-09T09:05:42.075Z,25.45
2023-04-09T09:06:42.116Z,25.42
2023-04-09T09:07:42.165Z,25.44
2023-04-09T09:08:42.205Z,25.44
2023-04-09T09:09:42.191Z,25.45
2023-04-09T09:10:42.295Z,25.48
2023-04-09T09:11:42.359Z,25.49
2023-04-09T09:12:42.397Z,25.48
2023-04-09T09:13:42.485Z,25.46
2023-04-09T09:14:42.583Z,25.46
2023-04-09T09:15:42.609Z,25.46
2023-04-09T09:16:42.748Z,25.48
2023-04-09T09:17:42.781Z,25.48
2023-04-09T09:18:42.763Z,25.48
2023-04-09T09:19:42.788Z,25.49
2023-04-09T09:20:42.853Z,25.48
2023-04-09T09:21:42.894Z,25.51
2023-04-09T09:22:42.955Z,25.51
2023-04-09T09:23:42.985Z,25.51
2023-04-09T09:24:43.051Z,25.48
2023-04-09T09:25:43.094Z,25.51
2023-04-09T09:26:43.110Z,25.49
2023-04-09T09:27:43.196Z,25.54
2023-04-09T09:28:43.225Z,25.54
2023-04-09T09:29:43.321Z,25.54
2023-04-09T09:30:43.393Z,25.55
2023-04-09T09:31:43.431Z,25.55
2023-04-09T09:32:43.501Z,25.57
2023-04-09T09:33:43.533Z,25.58
2023-04-09T09:34:43.594Z,25.58
2023-04-09T09:35:43.713Z,25.58
2023-04-09T09:36:43.703Z,25.60
2023-04-09T09:37:43.786Z,25.61
2023-04-09T09:38:43.869Z,25.62
2023-04-09T09:39:43.904Z,25.62
2023-04-09T09:40:43.947Z,25.65
2023-04-09T09:41:44.012Z,25.64
2023-04-09T09:42:44.056Z,25.64
2023-04-09T09:43:44.129Z,25.64
2023-04-09T09:44:44.170Z,25.65
2023-04-09T09:45:44.479Z,25.66
2023-04-09T09:46:44.418Z,25.66
2023-04-09T09:47:44.441Z,25.65
2023-04-09T09:48:44.453Z,25.66
2023-04-09T09:49:44.511Z,25.66
2023-04-09T09:50:44.631Z,25.68
2023-04-09T09:51:44.636Z,25.68
2023-04-09T09:52:44.713Z,25.68
2023-04-09T09:53:44.743Z,25.69
2023-04-09T09:54:44.829Z,25.72
2023-04-09T09:55:44.806Z,25.71
2023-04-09T09:56:44.884Z,25.74
2023-04-09T09:57:44.996Z,25.71
2023-04-09T09:58:44.989Z,25.76
2023-04-09T09:59:45.064Z,25.75
2023-04-09T10:00:45.107Z,25.75
2023-04-09T10:01:45.194Z,25.76
2023-04-09T10:02:45.389Z,25.78
2023-04-09T10:03:45.293Z,25.79
2023-04-09T10:04:45.417Z,25.78
2023-04-09T10:05:45.410Z,25.79
2023-04-09T10:06:45.464Z,25.79
2023-04-09T10:07:45.535Z,25.81
2023-04-09T10:08:45.607Z,25.82
2023-04-09T10:09:45.645Z,25.81
2023-04-09T10:10:45.650Z,25.81
2023-04-09T10:11:45.739Z,25.84
2023-04-09T10:12:45.778Z,25.84
2023-04-09T10:13:45.790Z,25.82
2023-04-09T10:14:45.858Z,25.86
2023-04-09T10:15:45.919Z,25.85
2023-04-09T10:16:46.008Z,25.82
2023-04-09T10:17:46.022Z,25.86
2023-04-09T10:18:46.054Z,25.86
2023-04-09T10:19:46.121Z,25.85
2023-04-09T10:20:46.176Z,25.85
2023-04-09T10:21:46.273Z,25.85
2023-04-09T10:22:46.270Z,25.86
2023-04-09T10:23:46.362Z,25.85
2023-04-09T10:24:46.380Z,25.85
2023-04-09T10:25:46.477Z,25.88
2023-04-09T10:26:46.512Z,25.88
2023-04-09T10:27:46.660Z,25.91
2023-04-09T10:28:46.633Z,25.88
2023-04-09T10:29:46.704Z,25.91
2023-04-09T10:30:46.872Z,25.91
2023-04-09T10:31:47.159Z,25.89
2023-04-09T10:32:46.859Z,25.88
2023-04-09T10:33:46.865Z,25.92
2023-04-09T10:34:46.910Z,25.92
2023-04-09T10:35:47.017Z,25.92
2023-04-09T10:36:46.986Z,25.93
2023-04-09T10:37:46.990Z,25.95
2023-04-09T10:38:47.145Z,25.95
2023-04-09T10:39:47.104Z,25.98
2023-04-09T10:40:48.100Z,25.96
2023-04-09T10:41:47.198Z,25.96
2023-04-09T10:42:47.349Z,25.99
2023-04-09T10:43:47.261Z,25.99
2023-04-09T10:44:47.256Z,26.00
2023-04-09T10:45:48.145Z,26.02
2023-04-09T10:46:47.348Z,25.99
2023-04-09T10:47:47.392Z,26.03
2023-04-09T10:48:47.382Z,25.99
2023-04-09T10:49:47.398Z,26.02
2023-04-09T10:50:47.453Z,26.03
2023-04-09T10:51:47.453Z,26.06
2023-04-09T10:52:47.490Z,26.06
2023-04-09T10:53:47.526Z,26.09
2023-04-09T10:54:47.528Z,26.10
2023-04-09T10:55:47.524Z,26.13
2023-04-09T10:56:47.533Z,26.15
2023-04-09T10:57:47.611Z,26.15
2023-04-09T10:58:47.647Z,26.18
2023-04-09T10:59:47.667Z,26.18
2023-04-09T11:00:47.669Z,26.19
2023-04-09T11:01:47.728Z,26.20
2023-04-09T11:02:48.006Z,26.19
2023-04-09T11:03:47.768Z,26.22
2023-04-09T11:04:47.835Z,26.19
2023-04-09T11:05:47.791Z,26.22
2023-04-09T11:06:47.806Z,26.23
2023-04-09T11:07:47.825Z,26.22
2023-04-09T11:08:47.887Z,26.22
2023-04-09T11:09:47.896Z,26.25
2023-04-09T11:10:48.668Z,26.25
2023-04-09T11:11:48.135Z,26.25
2023-04-09T11:12:48.165Z,26.20
2023-04-09T11:13:48.211Z,26.22
2023-04-09T11:14:48.336Z,26.22
2023-04-09T11:15:48.291Z,26.22
2023-04-09T11:16:48.298Z,26.25
2023-04-09T11:17:48.340Z,26.22
2023-04-09T11:18:48.379Z,26.22
2023-04-09T11:19:48.299Z,26.22
2023-04-09T11:20:48.301Z,26.22
2023-04-09T11:21:48.308Z,26.22
2023-04-09T11:22:48.649Z,26.20
2023-04-09T11:23:48.391Z,26.22
2023-04-09T11:24:48.485Z,26.26
2023-04-09T11:25:48.611Z,26.26
2023-04-09T11:26:48.564Z,26.25
2023-04-09T11:27:48.619Z,26.25
2023-04-09T11:28:48.578Z,26.26
2023-04-09T11:29:48.639Z,26.26
2023-04-09T11:30:48.655Z,26.28
2023-04-09T11:31:48.869Z,26.29
2023-04-09T11:32:48.909Z,26.35
2023-04-09T11:33:48.815Z,26.32
2023-04-09T11:34:48.803Z,26.38
2023-04-09T11:35:48.947Z,26.38
2023-04-09T11:36:48.795Z,26.39
2023-04-09T11:37:48.824Z,26.39
2023-04-09T11:38:48.904Z,26.40
2023-04-09T11:39:49.004Z,26.42
2023-04-09T11:40:49.521Z,26.39
2023-04-09T11:41:49.030Z,26.42
2023-04-09T11:42:49.036Z,26.43
2023-04-09T11:43:49.040Z,26.42
2023-04-09T11:44:49.047Z,26.40
2023-04-09T11:45:49.046Z,26.43
2023-04-09T11:46:49.174Z,26.40
2023-04-09T11:47:49.269Z,26.43
2023-04-09T11:48:49.322Z,26.43
2023-04-09T11:49:49.388Z,26.40
2023-04-09T11:50:49.455Z,26.43
2023-04-09T11:51:49.396Z,26.44
2023-04-09T11:52:49.408Z,26.40
2023-04-09T11:53:49.417Z,26.42
2023-04-09T11:54:49.421Z,26.43
2023-04-09T11:55:49.432Z,26.42
2023-04-09T11:56:49.437Z,26.40
2023-04-09T11:57:49.442Z,26.44
2023-04-09T11:58:49.624Z,26.42
2023-04-09T11:59:49.488Z,26.40
2023-04-09T12:00:49.594Z,26.42
2023-04-09T12:01:49.720Z,26.43
2023-04-09T12:02:49.836Z,26.44
2023-04-09T12:03:49.777Z,26.40
2023-04-09T12:04:49.803Z,26.43
2023-04-09T12:05:51.123Z,26.44
2023-04-09T12:06:49.818Z,26.43
2023-04-09T12:07:56.298Z,26.43
2023-04-09T12:08:51.099Z,26.43
2023-04-09T12:09:49.848Z,26.43
2023-04-09T12:10:50.924Z,26.44
2023-04-09T12:11:49.798Z,26.44
2023-04-09T12:12:49.971Z,26.43
2023-04-09T12:13:49.826Z,26.44
2023-04-09T12:14:49.762Z,26.46
2023-04-09T12:15:49.968Z,26.47
2023-04-09T12:16:49.820Z,26.50
2023-04-09T12:17:49.757Z,26.51
2023-04-09T12:18:49.724Z,26.51
2023-04-09T12:19:49.733Z,26.49
2023-04-09T12:20:49.791Z,26.51
2023-04-09T12:21:49.746Z,26.51
2023-04-09T12:22:49.715Z,26.51
2023-04-09T12:23:49.722Z,26.54
2023-04-09T12:24:49.734Z,26.54
2023-04-09T12:25:49.781Z,26.54
2023-04-09T12:26:49.688Z,26.57
2023-04-09T12:27:49.707Z,26.56
2023-04-09T12:28:49.691Z,26.56
2023-04-09T12:29:49.784Z,26.57
2023-04-09T12:30:49.722Z,26.59
2023-04-09T12:31:49.750Z,26.59
2023-04-09T12:32:49.728Z,26.59
2023-04-09T12:33:49.622Z,26.59
2023-04-09T12:34:49.661Z,26.59
2023-04-09T12:35:49.655Z,26.59
2023-04-09T12:36:49.646Z,26.60
2023-04-09T12:37:49.644Z,26.57
2023-04-09T12:38:49.897Z,26.60
2023-04-09T12:39:49.690Z,26.57
2023-04-09T12:40:49.637Z,26.57
2023-04-09T12:41:49.573Z,26.56
2023-04-09T12:42:49.675Z,26.60
2023-04-09T12:43:49.746Z,26.59
2023-04-09T12:44:49.602Z,26.59
2023-04-09T12:45:49.595Z,26.60
2023-04-09T12:46:49.524Z,26.60
2023-04-09T12:47:49.626Z,26.63
2023-04-09T12:48:49.606Z,26.64
2023-04-09T12:49:49.521Z,26.67
2023-04-09T12:50:49.562Z,26.67
2023-04-09T12:51:49.503Z,26.70
2023-04-09T12:52:49.512Z,26.69